Time;durP1;ratioP1;P1;durP2;ratioP2;P2;SDS_P1;SDS_P2;PMS_P1;PMS_P2;Temp;Humidity;BMP_temperature;BMP_pressure;BME280_temperature;BME280_humidity;BME280_pressure;Samples;Min_cycle;Max_cycle;Signal;HPM_P1;HPM_P2
2023/10/09 00:01:44;;;;;;;0.93;0.88;;;;;;;-145.63;59.76;39348.88;5023473;28;20080;-69
2023/10/09 00:04:15;;;;;;;0.77;0.77;;;;;;;-145.63;59.27;39348.88;5023276;28;20029;-69
2023/10/09 00:06:43;;;;;;;1.45;0.73;;;;;;;-145.63;59.69;39341.06;5023439;28;20060;-70
2023/10/09 00:11:44;;;;;;;0.80;0.77;;;;;;;-145.63;60.03;39344.97;5022373;28;20022;-70
2023/10/09 00:14:11;;;;;;;1.35;0.85;;;;;;;-145.63;60.02;39360.63;5022974;28;20036;-69
2023/10/09 00:16:47;;;;;;;1.75;0.70;;;;;;;-145.63;59.65;39335.19;5026779;28;20045;-71
2023/10/09 00:19:34;;;;;;;1.67;0.88;;;;;;;-145.63;60.02;39380.19;5035010;28;20033;-70
2023/10/09 00:22:04;;;;;;;1.58;1.00;;;;;;;-145.63;59.74;39321.50;5042313;28;20384;-71
2023/10/09 00:24:33;;;;;;;1.63;0.82;;;;;;;-145.63;60.36;39319.56;5034240;28;20072;-70
2023/10/09 00:27:11;;;;;;;1.27;1.10;;;;;;;-145.63;60.38;39370.41;5023339;28;20044;-71
2023/10/09 00:29:43;;;;;;;1.20;1.10;;;;;;;-145.63;60.38;39346.94;5029652;28;20069;-71
2023/10/09 00:32:32;;;;;;;1.20;0.95;;;;;;;-145.63;60.54;39354.75;5028277;28;20037;-71
2023/10/09 00:34:58;;;;;;;2.03;1.30;;;;;;;-145.63;60.39;39339.13;5023466;28;20033;-70
2023/10/09 00:37:26;;;;;;;0.90;0.80;;;;;;;-145.63;60.11;39344.97;5023395;28;20029;-71
2023/10/09 00:39:56;;;;;;;1.17;1.05;;;;;;;-145.63;60.76;39337.16;5022171;28;20089;-70
2023/10/09 00:42:29;;;;;;;2.90;1.55;;;;;;;-145.63;60.73;39329.34;5034818;28;20033;-70
2023/10/09 00:45:04;;;;;;;1.02;0.98;;;;;;;-145.63;60.13;39360.63;5042960;28;20067;-70
2023/10/09 00:47:34;;;;;;;1.73;1.33;;;;;;;-145.63;60.40;39341.06;5043206;28;20031;-72
2023/10/09 00:50:21;;;;;;;1.52;1.38;;;;;;;-145.63;60.00;39376.28;5042799;28;20033;-71
2023/10/09 00:53:12;;;;;;;1.30;1.10;;;;;;;-145.63;59.94;39327.38;5043015;28;20309;-71
2023/10/09 00:58:12;;;;;;;1.88;1.02;;;;;;;-145.63;60.05;39317.59;5042526;28;20045;-70
2023/10/09 01:00:46;;;;;;;1.30;1.20;;;;;;;-145.63;60.41;39352.81;5024818;28;20042;-70
2023/10/09 01:06:21;;;;;;;;;;;;;;;-145.63;60.62;39343.03;5043280;28;20026;-70
2023/10/09 01:11:10;;;;;;;1.33;1.13;;;;;;;-145.63;60.03;39343.03;5042533;28;19916;-70
2023/10/09 01:13:52;;;;;;;1.65;1.38;;;;;;;-145.63;60.22;39382.13;5042712;28;20286;-69
2023/10/09 01:16:22;;;;;;;1.65;1.20;;;;;;;-145.63;60.67;39380.19;5037800;28;20116;-70
2023/10/09 01:18:56;;;;;;;1.65;1.30;;;;;;;-145.63;60.71;39360.63;5034564;28;20030;-72
2023/10/09 01:21:26;;;;;;;1.20;1.10;;;;;;;-145.63;60.56;39346.94;5026386;28;20318;-72
2023/10/09 01:24:13;;;;;;;2.33;1.17;;;;;;;-145.63;60.51;39352.81;5026694;28;20030;-70
2023/10/09 01:26:44;;;;;;;1.50;1.40;;;;;;;-145.63;61.03;39227.63;5026396;28;20054;-71
2023/10/09 01:29:14;;;;;;;1.42;1.33;;;;;;;-145.63;60.48;39384.09;5025016;28;20380;-73
2023/10/09 01:32:00;;;;;;;1.80;1.35;;;;;;;-145.63;60.77;39350.84;5026248;28;20029;-73
2023/10/09 01:34:44;;;;;;;1.50;1.40;;;;;;;-145.63;61.23;39344.97;5026471;28;20025;-72
2023/10/09 01:37:25;;;;;;;1.30;1.20;;;;;;;-145.63;60.86;39331.28;5026229;28;20199;-75
2023/10/09 01:39:52;;;;;;;2.10;1.40;;;;;;;-145.63;61.20;39186.56;5026232;28;20029;-76
2023/10/09 01:42:34;;;;;;;1.30;1.20;;;;;;;-145.63;61.48;39352.81;5037200;28;20030;-72
2023/10/09 01:45:15;;;;;;;0.98;0.90;;;;;;;-145.63;60.83;39343.03;5045838;28;20025;-72
2023/10/09 01:47:46;;;;;;;1.10;1.00;;;;;;;-145.63;60.58;39354.75;5045718;28;20029;-71
2023/10/09 01:50:19;;;;;;;1.30;1.20;;;;;;;-145.63;60.28;39348.88;5044139;28;20093;-72
2023/10/09 01:52:45;;;;;;;1.20;1.10;;;;;;;-145.63;59.94;38734.81;5045638;28;20025;-71
2023/10/09 01:55:27;;;;;;;1.23;1.02;;;;;;;-145.63;59.74;39360.63;5045563;28;20258;-72
2023/10/09 01:57:53;;;;;;;0.85;0.85;;;;;;;-145.63;60.40;39372.34;5044563;28;20055;-70
2023/10/09 02:00:23;;;;;;;0.70;0.70;;;;;;;-145.63;60.25;39354.75;5045245;28;20176;-70
2023/10/09 02:02:50;;;;;;;0.85;0.85;;;;;;;-145.63;60.71;39389.97;5045247;28;20210;-68
2023/10/09 02:07:52;;;;;;;1.95;1.05;;;;;;;-145.63;60.88;39323.47;5045404;28;20040;-69
2023/10/09 02:12:59;;;;;;;1.40;1.30;;;;;;;-145.63;61.41;39335.19;5045344;28;20033;-69
2023/10/09 02:16:13;;;;;;;1.20;1.10;;;;;;;-145.63;60.77;39309.78;5044247;28;20235;-68
2023/10/09 02:21:00;;;;;;;1.00;1.00;;;;;;;-145.63;61.07;39368.44;5045333;28;20033;-70
2023/10/09 02:23:49;;;;;;;1.88;0.90;;;;;;;-145.63;60.87;39339.13;5045220;28;20036;-71
2023/10/09 02:26:46;;;;;;;1.27;0.90;;;;;;;-145.63;60.82;39388.00;5044763;28;20348;-70
2023/10/09 02:31:43;;;;;;;1.38;0.88;;;;;;;-145.63;61.33;39372.34;5044840;28;20026;-71
2023/10/09 02:34:12;;;;;;;1.00;0.90;;;;;;;-145.63;61.57;39360.63;5041914;28;20025;-71
2023/10/09 02:36:41;;;;;;;1.50;1.00;;;;;;;-145.63;61.37;39360.63;5033192;28;20064;-71
2023/10/09 02:39:21;;;;;;;0.88;0.73;;;;;;;-145.63;61.46;39307.81;5044609;28;20032;-70
2023/10/09 02:41:49;;;;;;;1.05;0.90;;;;;;;-145.63;61.27;39344.97;5044459;28;20028;-72
2023/10/09 02:44:15;;;;;;;0.98;0.77;;;;;;;-145.63;61.17;39368.44;5044290;28;20147;-71
2023/10/09 02:46:41;;;;;;;1.58;0.70;;;;;;;-145.63;61.38;39372.34;5044810;28;20109;-70
2023/10/09 02:49:09;;;;;;;0.98;0.80;;;;;;;-145.63;60.92;39321.50;5044582;28;20033;-70
2023/10/09 02:51:41;;;;;;;0.60;0.60;;;;;;;-145.63;60.71;39470.16;5044772;28;20084;-70
2023/10/09 02:54:27;;;;;;;1.02;0.70;;;;;;;-145.63;60.84;39358.66;5044286;28;20021;-70
2023/10/09 02:57:07;;;;;;;0.77;0.77;;;;;;;-145.63;60.39;39341.06;5044516;28;20025;-69
2023/10/09 02:59:38;;;;;;;0.63;0.63;;;;;;;-145.63;60.74;39331.28;5044372;28;20021;-70
2023/10/09 03:02:04;;;;;;;0.75;0.70;;;;;;;-145.63;61.14;39354.75;5043984;28;20032;-70
2023/10/09 03:04:30;;;;;;;1.58;0.88;;;;;;;-145.63;61.19;39344.97;5044260;28;20025;-70
2023/10/09 03:06:57;;;;;;;1.95;0.70;;;;;;;-145.63;60.55;39362.59;5044163;28;20028;-69
2023/10/09 03:09:28;;;;;;;1.45;0.93;;;;;;;-145.63;60.00;39358.66;5044017;28;20356;-70
2023/10/09 03:12:11;;;;;;;0.57;0.57;;;;;;;-145.63;60.18;39411.47;5043953;28;20040;-69
2023/10/09 03:14:38;;;;;;;1.23;0.70;;;;;;;-145.63;59.65;39356.72;5044192;28;20047;-70
2023/10/09 03:17:05;;;;;;;1.48;0.90;;;;;;;-145.63;59.63;39329.34;5038142;28;20057;-72
2023/10/09 03:19:38;;;;;;;0.60;0.60;;;;;;;-145.63;59.51;39378.22;5029946;28;20026;-70
2023/10/09 03:22:11;;;;;;;1.02;0.95;;;;;;;-145.63;59.89;39415.38;5024143;28;20029;-71
2023/10/09 03:24:44;;;;;;;1.10;0.77;;;;;;;-145.63;59.41;39368.44;5024144;28;20018;-70
2023/10/09 03:27:11;;;;;;;1.10;0.80;;;;;;;-145.63;58.89;39352.81;5023998;28;20085;-70
2023/10/09 03:29:37;;;;;;;2.83;0.88;;;;;;;-145.63;59.09;39343.03;5024077;28;20026;-71
2023/10/09 03:32:03;;;;;;;1.55;0.90;;;;;;;-145.63;60.07;39372.34;5023884;28;20026;-70
2023/10/09 03:34:30;;;;;;;3.13;0.90;;;;;;;-145.63;59.88;39384.09;5024009;28;20095;-70
2023/10/09 03:37:03;;;;;;;1.02;0.80;;;;;;;-145.63;59.49;39360.63;5025047;28;20022;-71
2023/10/09 03:39:34;;;;;;;1.90;0.90;;;;;;;-145.63;59.19;39354.75;5027244;28;20285;-71
2023/10/09 03:42:04;;;;;;;2.70;0.90;;;;;;;-145.63;59.13;39368.44;5040828;28;20063;-70
2023/10/09 03:44:35;;;;;;;2.10;0.90;;;;;;;-145.63;58.63;39397.78;5042917;28;20034;-72
2023/10/09 03:47:01;;;;;;;2.78;1.00;;;;;;;-145.63;59.20;39356.72;5042728;28;20021;-70
2023/10/09 03:49:29;;;;;;;1.17;0.80;;;;;;;-145.63;59.99;39356.72;5043634;28;20029;-69
2023/10/09 03:51:55;;;;;;;1.15;0.68;;;;;;;-145.63;59.26;39327.38;5043561;28;20021;-69
2023/10/09 03:54:22;;;;;;;1.15;0.60;;;;;;;-145.63;58.88;39339.13;5043569;28;20029;-71
2023/10/09 03:56:51;;;;;;;1.00;0.70;;;;;;;-145.63;59.14;39348.88;5043547;28;20024;-71
2023/10/09 03:59:21;;;;;;;1.77;0.60;;;;;;;-145.63;58.92;39368.44;5023708;28;20022;-72
2023/10/09 04:01:52;;;;;;;0.95;0.60;;;;;;;-145.63;58.93;39368.44;5023957;28;20033;-71
2023/10/09 04:04:22;;;;;;;1.75;0.80;;;;;;;-145.63;59.20;39374.31;5039099;28;20599;-71
2023/10/09 04:06:49;;;;;;;0.95;0.50;;;;;;;-145.63;58.72;39397.78;5025271;28;20060;-72
2023/10/09 04:11:46;;;;;;;0.60;0.60;;;;;;;-145.63;58.31;39327.38;5032492;28;20033;-71
2023/10/09 04:14:36;;;;;;;1.13;0.82;;;;;;;-145.63;59.50;38515.81;5024294;28;20041;-71
2023/10/09 04:17:06;;;;;;;0.60;0.57;;;;;;;-145.63;59.02;39368.44;5036104;28;20049;-71
2023/10/09 04:19:47;;;;;;;1.13;0.80;;;;;;;-145.63;59.26;39352.81;5038690;28;20084;-71
2023/10/09 04:22:26;;;;;;;1.42;0.63;;;;;;;-145.63;59.78;39346.94;5037850;28;20049;-70
2023/10/09 04:24:52;;;;;;;0.95;0.52;;;;;;;-145.63;59.52;39344.97;5042269;28;20017;-71
2023/10/09 04:27:26;;;;;;;0.65;0.63;;;;;;;-145.63;59.86;39344.97;5030660;28;20029;-73
2023/10/09 04:29:56;;;;;;;0.45;0.45;;;;;;;-145.63;58.83;39374.31;5023239;28;20034;-72
2023/10/09 04:32:24;;;;;;;0.60;0.60;;;;;;;-145.63;59.03;39352.81;5041525;28;20112;-71
2023/10/09 04:37:38;;;;;;;0.98;0.85;;;;;;;-145.63;58.83;39335.19;5043222;28;20080;-71
2023/10/09 04:41:05;;;;;;;1.38;0.73;;;;;;;-145.63;58.79;39366.50;5042344;28;20021;-71
2023/10/09 04:42:59;;;;;;;1.60;1.10;;;;;;;-145.63;58.95;39370.41;5026366;28;20042;-70
2023/10/09 04:48:33;;;;;;;1.27;1.00;;;;;;;-145.63;60.23;39366.50;5021869;28;20117;-71
2023/10/09 04:53:50;;;;;;;1.52;1.02;;;;;;;-145.63;60.50;39343.03;5042045;28;20021;-71
2023/10/09 04:56:16;;;;;;;;;;;;;;;-145.63;60.02;39352.81;5034680;28;20121;-71
2023/10/09 04:58:41;;;;;;;3.78;1.10;;;;;;;-145.63;59.42;39331.28;5036111;28;20047;-70
2023/10/09 05:01:14;;;;;;;2.95;1.20;;;;;;;-145.63;59.74;39380.19;5043909;28;20032;-72
2023/10/09 05:06:32;;;;;;;1.23;1.10;;;;;;;-145.63;59.54;39368.44;5026414;28;20076;-72
2023/10/09 05:09:07;;;;;;;1.45;1.13;;;;;;;-145.63;60.33;39372.34;5044668;28;20041;-70
2023/10/09 05:11:52;;;;;;;1.20;1.10;;;;;;;-145.63;59.74;39411.47;5046201;28;20025;-72
2023/10/09 05:14:38;;;;;;;2.33;1.38;;;;;;;-145.63;59.77;39329.34;5045843;28;20117;-70
2023/10/09 05:17:09;;;;;;;2.35;1.20;;;;;;;-145.63;59.63;38504.09;5039584;28;20029;-70
2023/10/09 05:19:54;;;;;;;2.17;1.48;;;;;;;-145.63;59.49;39401.69;5030843;28;20321;-71
2023/10/09 05:22:29;;;;;;;2.08;1.17;;;;;;;-145.63;60.19;39356.72;5039271;28;20095;-69
2023/10/09 05:24:57;;;;;;;1.25;1.15;;;;;;;-145.63;59.46;38570.56;5026376;28;20026;-70
2023/10/09 05:30:26;;;;;;;2.22;1.30;;;;;;;-145.63;60.17;39350.84;5026017;28;20033;-72
2023/10/09 05:32:58;;;;;;;1.88;1.33;;;;;;;-145.63;60.02;39360.63;5026128;28;20021;-70
2023/10/09 05:36:05;;;;;;;1.67;1.40;;;;;;;-145.63;59.31;39386.06;5026097;28;20026;-70
2023/10/09 05:38:23;;;;;;;2.22;1.52;;;;;;;-145.63;60.25;39360.63;5025308;28;20322;-70
2023/10/09 05:40:53;;;;;;;1.50;1.40;;;;;;;-145.63;60.15;39354.75;5025855;28;20041;-70
2023/10/09 05:46:09;;;;;;;1.50;1.40;;;;;;;-145.63;59.56;39344.97;5045579;28;20091;-69
2023/10/09 05:51:12;;;;;;;2.85;1.63;;;;;;;-145.63;59.55;39364.53;5045411;28;20045;-71
2023/10/09 06:03:16;;;;;;;1.95;1.75;;;;;;;-145.63;59.21;39286.31;5045411;28;20033;-70
2023/10/09 06:04:55;;;;;;;1.73;1.40;;;;;;;-145.63;58.80;39366.50;5045016;28;20052;-70
2023/10/09 06:07:40;;;;;;;1.30;1.20;;;;;;;-145.63;59.13;39368.44;5045248;28;20029;-69
2023/10/09 06:10:17;;;;;;;1.58;1.40;;;;;;;-145.63;59.55;39364.53;5038230;28;20186;-70
2023/10/09 06:17:59;;;;;;;2.25;1.77;;;;;;;-145.63;59.40;39378.22;5042043;28;20052;-71
2023/10/09 06:21:07;;;;;;;3.90;2.27;;;;;;;-145.63;59.28;39344.97;5044657;28;20030;-71
2023/10/09 06:23:57;;;;;;;2.88;2.00;;;;;;;-145.63;60.31;39325.41;5044425;28;20041;-71
2023/10/09 06:26:23;;;;;;;3.35;1.90;;;;;;;-145.63;59.86;39335.19;5043776;28;20025;-73
2023/10/09 06:29:13;;;;;;;1.75;1.63;;;;;;;-145.63;58.93;39348.88;5042218;28;20199;-71
2023/10/09 06:31:57;;;;;;;2.63;1.83;;;;;;;-145.63;59.64;39327.38;5042036;28;20040;-71
2023/10/09 06:34:32;;;;;;;1.95;1.75;;;;;;;-145.63;60.47;39329.34;5042972;28;20025;-71
2023/10/09 06:37:03;;;;;;;3.03;1.60;;;;;;;-145.63;59.69;39327.38;5041324;28;20045;-70
2023/10/09 06:42:55;;;;;;;2.33;1.33;;;;;;;-145.63;59.38;39364.53;5042154;28;20025;-69
2023/10/09 06:47:42;;;;;;;1.40;1.30;;;;;;;-145.63;58.97;39329.34;5040525;28;20029;-69
2023/10/09 06:52:58;;;;;;;4.38;2.20;;;;;;;-145.63;59.40;39290.22;5030958;28;20022;-69
2023/10/09 06:55:37;;;;;;;2.53;1.65;;;;;;;-145.63;59.05;39313.69;5036790;28;20041;-69
2023/10/09 06:58:09;;;;;;;2.30;1.75;;;;;;;-145.63;57.78;39311.72;5037190;28;20037;-70
2023/10/09 07:00:54;;;;;;;3.63;1.90;;;;;;;-145.63;57.88;39313.69;5039356;28;20302;-71
2023/10/09 07:03:29;;;;;;;2.50;1.63;;;;;;;-145.63;58.58;39444.72;5042728;28;20249;-71
2023/10/09 07:06:48;;;;;;;4.22;1.90;;;;;;;-145.63;58.15;39343.03;5042250;28;20024;-71
2023/10/09 07:15:01;;;;;;;1.73;1.30;;;;;;;-145.63;57.10;39362.59;5029298;28;20056;-71
2023/10/09 07:20:09;;;;;;;1.58;1.38;;;;;;;-145.63;56.88;39348.88;5041786;28;20029;-75
2023/10/09 07:22:39;;;;;;;3.05;1.60;;;;;;;-145.63;57.34;39376.28;5041262;28;20025;-70
2023/10/09 07:25:27;;;;;;;1.65;1.00;;;;;;;-145.63;56.71;39380.19;5043378;28;20344;-71
2023/10/09 07:27:55;;;;;;;0.77;0.70;;;;;;;-145.63;56.56;39335.19;5043449;28;20309;-72
2023/10/09 07:38:19;;;;;;;1.15;1.00;;;;;;;-145.63;56.94;39364.53;5042021;28;20330;-72
2023/10/09 07:43:39;;;;;;;2.17;1.30;;;;;;;-145.63;56.76;39356.72;5036668;28;20021;-70
2023/10/09 07:48:52;;;;;;;0.82;0.63;;;;;;;-145.63;56.75;39335.19;5041459;28;20025;-70
2023/10/09 07:51:52;;;;;;;1.17;0.88;;;;;;;-145.63;56.80;39331.28;5042041;28;20033;-71
2023/10/09 07:54:14;;;;;;;1.35;1.20;;;;;;;-145.63;56.85;39344.97;5041497;28;20033;-69
2023/10/09 07:56:45;;;;;;;1.90;1.30;;;;;;;-145.63;56.51;39343.03;5038839;28;20155;-69
2023/10/09 07:59:18;;;;;;;1.52;1.10;;;;;;;-145.63;55.99;39366.50;5042919;28;20088;-70
2023/10/09 08:01:59;;;;;;;3.20;1.30;;;;;;;-145.63;56.18;39323.47;5037407;28;20017;-70
2023/10/09 08:04:48;;;;;;;3.35;1.40;;;;;;;-145.63;56.86;39401.69;5039722;28;20033;-72
2023/10/09 08:07:34;;;;;;;2.03;1.50;;;;;;;-145.63;56.04;39321.50;5043034;28;20029;-72
2023/10/09 08:18:18;;;;;;;1.58;0.98;;;;;;;-145.63;56.53;39329.34;5027030;28;20302;-71
2023/10/09 08:26:13;;;;;;;1.80;1.10;;;;;;;-145.63;57.02;39344.97;5042729;28;20365;-70
2023/10/09 08:28:45;;;;;;;1.60;1.20;;;;;;;-145.63;56.67;39317.59;5037427;28;20025;-71
2023/10/09 08:31:19;;;;;;;3.53;1.50;;;;;;;-145.63;56.38;39305.88;5046873;28;20167;-70
2023/10/09 08:33:56;;;;;;;2.30;2.10;;;;;;;-145.63;57.16;39341.06;5046867;28;20044;-70
2023/10/09 08:36:28;;;;;;;1.70;1.45;;;;;;;-145.63;56.57;39341.06;5046617;28;20033;-68
2023/10/09 08:38:59;;;;;;;2.95;1.65;;;;;;;-145.63;56.24;39327.38;5046473;28;20167;-67
2023/10/09 08:41:29;;;;;;;2.80;1.40;;;;;;;-145.63;57.36;39354.75;5045261;28;20032;-69
2023/10/09 08:43:57;;;;;;;5.30;1.50;;;;;;;-145.63;57.20;39323.47;5040078;28;20021;-67
2023/10/09 08:46:28;;;;;;;2.72;1.85;;;;;;;-145.63;56.53;39358.66;5032213;28;20040;-68
2023/10/09 08:48:56;;;;;;;3.00;1.65;;;;;;;-145.63;56.22;39313.69;5028447;28;20053;-69
2023/10/09 08:51:25;;;;;;;1.38;1.27;;;;;;;-145.63;56.26;39313.69;5042496;28;20112;-69
2023/10/09 08:53:52;;;;;;;3.65;1.58;;;;;;;-145.63;55.90;39344.97;5045458;28;20055;-71
2023/10/09 08:56:22;;;;;;;2.65;2.20;;;;;;;-145.63;56.28;39352.81;5046683;28;20022;-69
2023/10/09 08:58:53;;;;;;;1.90;1.40;;;;;;;-145.63;55.78;39360.63;5046459;28;20025;-68
2023/10/09 09:01:21;;;;;;;9.00;1.83;;;;;;;-145.63;55.24;39411.47;5046551;28;20132;-68
2023/10/09 09:03:50;;;;;;;1.63;1.40;;;;;;;-145.63;55.78;39372.34;5046552;28;20022;-71
2023/10/09 09:06:19;;;;;;;1.83;1.40;;;;;;;-145.63;55.78;39341.06;5046208;28;20033;-69
2023/10/09 09:08:46;;;;;;;3.47;1.67;;;;;;;-145.63;55.89;39325.41;5046520;28;20025;-71
2023/10/09 09:13:50;;;;;;;2.40;1.52;;;;;;;-145.63;55.41;38547.09;5046392;28;20025;-72
2023/10/09 09:16:21;;;;;;;2.50;1.73;;;;;;;-145.63;54.97;39395.84;5039295;28;20061;-70
2023/10/09 09:19:28;;;;;;;1.70;1.23;;;;;;;-145.63;54.88;39337.16;5036310;28;20025;-72
2023/10/09 09:21:58;;;;;;;1.77;1.42;;;;;;;-145.63;55.33;39309.78;5044772;28;20045;-70
2023/10/09 09:26:59;;;;;;;3.83;1.70;;;;;;;-145.63;54.49;39341.06;5046347;28;20025;-70
2023/10/09 09:29:38;;;;;;;3.80;1.45;;;;;;;-145.63;54.69;39366.50;5038252;28;20218;-73
2023/10/09 09:32:20;;;;;;;3.17;1.90;;;;;;;-145.63;54.40;39300.00;5042716;28;20029;-69
2023/10/09 09:34:57;;;;;;;4.28;1.88;;;;;;;-145.63;54.32;39362.59;5045233;28;20175;-69
2023/10/09 09:37:33;;;;;;;3.70;1.85;;;;;;;-145.63;54.99;39339.13;5044265;28;20036;-68
2023/10/09 09:40:14;;;;;;;2.30;2.00;;;;;;;-145.63;55.21;39298.03;5045466;28;20026;-68
2023/10/09 09:42:48;;;;;;;3.10;1.80;;;;;;;-145.63;53.90;39333.25;5045662;28;20026;-69
2023/10/09 09:45:16;;;;;;;2.08;1.30;;;;;;;-145.63;54.30;39317.59;5045581;28;20446;-68
2023/10/09 09:47:51;;;;;;;4.93;1.45;;;;;;;-145.63;54.37;39358.66;5044358;28;20100;-69
2023/10/09 09:50:29;;;;;;;4.65;1.40;;;;;;;-145.63;54.37;39348.88;5045508;28;20017;-68
2023/10/09 09:52:56;;;;;;;2.45;1.48;;;;;;;-145.63;53.40;39352.81;5036947;28;20025;-69
2023/10/09 09:55:31;;;;;;;2.63;1.63;;;;;;;-145.63;53.20;39323.47;5043249;28;20022;-68
2023/10/09 09:57:57;;;;;;;1.75;1.10;;;;;;;-145.63;52.90;39325.41;5044948;28;20310;-67
2023/10/09 10:01:16;;;;;;;3.15;1.40;;;;;;;-145.63;53.14;39372.34;5044571;28;20341;-68
2023/10/09 10:03:38;;;;;;;2.75;1.50;;;;;;;-145.63;53.38;39309.78;5044203;28;20042;-69
2023/10/09 10:06:10;;;;;;;2.45;1.40;;;;;;;-145.63;53.21;39362.59;5025216;28;20033;-69
2023/10/09 10:08:39;;;;;;;;;;;;;;;-145.63;52.81;39350.84;5025899;28;20030;-69
2023/10/09 10:11:05;;;;;;;3.00;1.60;;;;;;;-145.63;53.08;39388.00;5024134;28;20100;-70
2023/10/09 10:13:42;;;;;;;3.35;1.38;;;;;;;-145.63;53.17;39380.19;5025382;28;20068;-69
2023/10/09 10:16:55;;;;;;;1.55;1.20;;;;;;;-145.63;52.91;39372.34;5028193;28;20033;-67
2023/10/09 10:21:40;;;;;;;2.25;1.52;;;;;;;-145.63;53.81;39362.59;5032466;28;20191;-69
2023/10/09 10:24:31;;;;;;;1.65;1.55;;;;;;;-145.63;53.29;39337.16;5041644;28;20033;-69
2023/10/09 10:27:24;;;;;;;3.38;1.58;;;;;;;-145.63;53.36;39339.13;5044954;28;20026;-67
2023/10/09 10:30:12;;;;;;;2.60;1.67;;;;;;;-145.63;53.25;39376.28;5040975;28;20097;-67
2023/10/09 10:33:09;;;;;;;4.78;2.45;;;;;;;-145.63;53.79;39341.06;5038725;28;20116;-68
2023/10/09 10:35:45;;;;;;;1.90;1.40;;;;;;;-145.63;53.44;39337.16;5035233;28;20041;-68
2023/10/09 10:38:32;;;;;;;3.35;1.63;;;;;;;-145.63;53.00;39393.88;5042373;28;20310;-68
2023/10/09 10:41:17;;;;;;;1.60;1.40;;;;;;;-145.63;53.54;39386.06;5041647;28;20321;-67
2023/10/09 10:46:34;;;;;;;1.83;1.30;;;;;;;-145.63;54.56;39356.72;5043943;28;20029;-69
2023/10/09 10:49:14;;;;;;;4.80;1.55;;;;;;;-145.63;55.11;39368.44;5043918;28;20045;-67
2023/10/09 10:51:39;;;;;;;3.53;1.40;;;;;;;-145.63;55.23;39346.94;5041295;28;20041;-68
2023/10/09 10:56:57;;;;;;;2.38;1.60;;;;;;;-145.63;55.84;39395.84;5040470;28;20025;-67
2023/10/09 10:59:24;;;;;;;3.13;1.50;;;;;;;-145.63;56.08;39380.19;5035863;28;20374;-68
2023/10/09 11:07:09;;;;;;;1.95;1.25;;;;;;;-145.63;55.70;39368.44;5043649;28;20063;-67
2023/10/09 11:12:39;;;;;;;5.30;2.00;;;;;;;-145.63;56.04;39391.91;5044198;28;20536;-67
2023/10/09 11:15:29;;;;;;;1.83;1.38;;;;;;;-145.63;56.61;39350.84;5043709;28;20055;-68
2023/10/09 11:18:07;;;;;;;6.00;1.70;;;;;;;-145.63;56.34;39399.75;5035966;28;20029;-68
2023/10/09 11:20:38;;;;;;;3.10;1.98;;;;;;;-145.63;55.58;39372.34;5023929;28;20036;-68
2023/10/09 11:23:53;;;;;;;3.03;1.90;;;;;;;-145.63;54.80;39389.97;5024111;28;20053;-69
2023/10/09 11:25:52;;;;;;;3.03;1.70;;;;;;;-145.63;54.90;39391.91;5030287;28;20065;-69
2023/10/09 11:28:29;;;;;;;2.72;1.60;;;;;;;-145.63;54.49;39399.75;5023948;28;20033;-68
2023/10/09 11:31:12;;;;;;;2.72;1.70;;;;;;;-145.63;55.10;39382.13;5024083;28;20040;-70
2023/10/09 11:33:48;;;;;;;2.03;1.25;;;;;;;-145.63;54.46;39407.56;5024095;28;20068;-68
2023/10/09 11:36:16;;;;;;;1.67;1.30;;;;;;;-145.63;54.99;39431.03;5023836;28;20042;-70
2023/10/09 11:38:45;;;;;;;2.08;1.15;;;;;;;-145.63;54.17;39399.75;5023744;28;20028;-71
2023/10/09 11:41:24;;;;;;;3.35;1.55;;;;;;;-145.63;54.22;39384.09;5025798;28;20037;-70
2023/10/09 11:43:54;;;;;;;2.42;1.48;;;;;;;-145.63;54.07;39358.66;5042224;28;20043;-73
2023/10/09 11:46:37;;;;;;;2.30;1.50;;;;;;;-145.63;55.04;39362.59;5043113;28;20025;-68
2023/10/09 11:49:44;;;;;;;2.42;1.60;;;;;;;-145.63;53.96;39354.75;5040210;28;20048;-68
2023/10/09 11:52:35;;;;;;;1.58;1.05;;;;;;;-145.63;53.29;39372.34;5038012;28;20034;-67
2023/10/09 11:54:56;;;;;;;1.08;0.85;;;;;;;-145.63;53.10;39360.63;5038162;28;20037;-70
2023/10/09 11:57:30;;;;;;;1.77;1.23;;;;;;;-145.63;53.61;39388.00;5042611;28;20029;-69
2023/10/09 11:59:57;;;;;;;2.25;1.30;;;;;;;-145.63;52.88;39389.97;5040503;28;20071;-68
2023/10/09 12:02:23;;;;;;;3.08;1.40;;;;;;;-145.63;52.94;39388.00;5042321;28;20060;-68
2023/10/09 12:04:49;;;;;;;3.88;1.73;;;;;;;-145.63;52.89;39395.84;5025414;28;20028;-68
2023/10/09 12:07:15;;;;;;;3.90;1.83;;;;;;;-145.63;53.40;39395.84;5043007;28;20029;-65
2023/10/09 12:09:40;;;;;;;4.75;1.90;;;;;;;-145.63;53.21;39352.81;5042632;28;20328;-67
2023/10/09 12:12:08;;;;;;;1.15;1.10;;;;;;;-145.63;53.04;39370.41;5042613;28;20057;-67
2023/10/09 12:14:37;;;;;;;1.88;1.33;;;;;;;-145.63;52.66;39397.78;5042614;28;20029;-67
2023/10/09 12:17:07;;;;;;;7.05;5.72;;;;;;;-145.63;52.84;39374.31;5039223;28;20044;-66
2023/10/09 12:19:39;;;;;;;3.13;2.47;;;;;;;-145.63;52.97;39415.38;5035013;28;20314;-67
2023/10/09 12:22:10;;;;;;;3.35;2.10;;;;;;;-145.63;53.49;39386.06;5037464;28;20052;-68
2023/10/09 12:24:37;;;;;;;2.42;1.52;;;;;;;-145.63;53.15;39348.88;5039273;28;20034;-67
2023/10/09 12:27:09;;;;;;;3.58;1.60;;;;;;;-145.63;53.56;39391.91;5033650;28;20093;-69
2023/10/09 12:29:35;;;;;;;1.42;1.00;;;;;;;-145.63;52.87;39372.34;5037417;28;20218;-69
2023/10/09 12:32:02;;;;;;;2.42;1.48;;;;;;;-145.63;53.61;39399.75;5039035;28;20030;-69
2023/10/09 12:34:30;;;;;;;2.42;1.48;;;;;;;-145.63;52.71;39356.72;5040847;28;20071;-68
2023/10/09 12:37:01;;;;;;;3.88;1.98;;;;;;;-145.63;53.16;39389.97;5039791;28;20029;-69
2023/10/09 12:39:33;;;;;;;3.67;1.90;;;;;;;-145.63;53.94;39368.44;5039739;28;20021;-70
2023/10/09 12:42:06;;;;;;;3.35;1.67;;;;;;;-145.63;53.46;39395.84;5042893;28;20048;-70
2023/10/09 12:44:38;;;;;;;2.78;1.58;;;;;;;-145.63;53.40;39409.53;5042215;28;20032;-71
2023/10/09 12:47:06;;;;;;;4.03;1.40;;;;;;;-145.63;53.94;39401.69;5042594;28;20049;-70
2023/10/09 12:49:32;;;;;;;3.25;1.35;;;;;;;-145.63;54.46;39393.88;5041180;28;20120;-69
2023/10/09 12:51:58;;;;;;;1.20;1.05;;;;;;;-145.63;54.22;39372.34;5042915;28;20326;-73
2023/10/09 12:54:28;;;;;;;2.40;1.65;;;;;;;-145.63;54.71;39388.00;5042653;28;20033;-71
2023/10/09 12:56:54;;;;;;;2.38;1.60;;;;;;;-145.63;54.42;39397.78;5042968;28;20087;-68
2023/10/09 12:59:20;;;;;;;1.40;1.27;;;;;;;-145.63;55.29;39399.75;5042384;28;20037;-70
2023/10/09 13:01:51;;;;;;;3.70;1.58;;;;;;;-145.63;54.11;39378.22;5042603;28;20037;-71
2023/10/09 13:04:17;;;;;;;2.47;1.70;;;;;;;-145.63;53.71;39366.50;5042380;28;20025;-70
2023/10/09 13:06:45;;;;;;;2.30;1.77;;;;;;;-145.63;53.82;39372.34;5037998;28;20370;-75
2023/10/09 13:09:15;;;;;;;2.28;1.55;;;;;;;-145.63;53.74;39393.88;5022801;28;20096;-73
2023/10/09 13:11:42;;;;;;;3.53;2.10;;;;;;;-145.63;53.06;39401.69;5022819;28;20033;-69
2023/10/09 13:14:16;;;;;;;4.03;2.13;;;;;;;-145.63;52.96;39382.13;5024415;28;20076;-72
2023/10/09 13:16:47;;;;;;;3.05;2.05;;;;;;;-145.63;53.25;39378.22;5033824;28;20029;-71
2023/10/09 13:19:13;;;;;;;2.58;1.50;;;;;;;-145.63;53.64;39407.56;5029782;28;20025;-70
2023/10/09 13:21:40;;;;;;;4.68;1.38;;;;;;;-145.63;53.27;39419.31;5037649;28;20403;-73
2023/10/09 13:24:12;;;;;;;2.55;1.30;;;;;;;-145.63;52.68;39395.84;5031104;28;20021;-69
2023/10/09 13:26:46;;;;;;;3.63;1.50;;;;;;;-145.63;53.17;39376.28;5039381;28;20085;-71
2023/10/09 13:29:12;;;;;;;2.03;1.35;;;;;;;-145.63;53.18;39386.06;5036954;28;20029;-74
2023/10/09 13:31:46;;;;;;;2.88;1.50;;;;;;;-145.63;53.25;39376.28;5035786;28;20030;-71
2023/10/09 13:34:15;;;;;;;2.00;1.48;;;;;;;-145.63;52.50;39389.97;5025148;28;20430;-72
2023/10/09 13:36:55;;;;;;;2.63;1.30;;;;;;;-145.63;52.86;39397.78;5026276;28;20029;-70
2023/10/09 13:39:24;;;;;;;4.07;1.52;;;;;;;-145.63;53.39;39296.09;5026005;28;20030;-74
2023/10/09 13:41:59;;;;;;;2.53;1.38;;;;;;;-145.63;53.32;39397.78;5032993;28;20037;-69
2023/10/09 13:44:28;;;;;;;2.55;1.90;;;;;;;-145.63;53.11;39407.56;5045646;28;20083;-70
2023/10/09 13:46:56;;;;;;;2.25;1.50;;;;;;;-145.63;52.77;39382.13;5046058;28;20316;-73
2023/10/09 13:49:22;;;;;;;1.92;1.45;;;;;;;-145.63;52.69;39427.13;5045655;28;20044;-72